sensor_id;sensor_type;location;lat;lon;timestamp;pressure;altitude;pressure_sealevel;temperature;humidity
55470;BME280;41334;47.872;16.384;2022-08-14T00:01:58;98592.84;;;16.08;64.51
55470;BME280;41334;47.872;16.384;2022-08-14T00:05:05;98596.38;;;16.08;64.60
55470;BME280;41334;47.872;16.384;2022-08-14T00:08:08;98590.41;;;16.06;64.86
55470;BME280;41334;47.872;16.384;2022-08-14T00:11:15;98595.81;;;16.06;64.50
55470;BME280;41334;47.872;16.384;2022-08-14T00:14:17;98590.41;;;16.06;64.04
55470;BME280;41334;47.872;16.384;2022-08-14T00:17:19;98580.63;;;16.05;65.49
55470;BME280;41334;47.872;16.384;2022-08-14T00:20:28;98579.25;;;16.02;65.30
55470;BME280;41334;47.872;16.384;2022-08-14T00:23:43;98581.63;;;15.99;64.52
55470;BME280;41334;47.872;16.384;2022-08-14T00:26:56;98588.66;;;16.00;64.91
55470;BME280;41334;47.872;16.384;2022-08-14T00:30:05;98584.31;;;15.99;65.17
55470;BME280;41334;47.872;16.384;2022-08-14T00:33:07;98570.81;;;15.99;65.18
55470;BME280;41334;47.872;16.384;2022-08-14T00:36:16;98575.13;;;16.00;65.14
55470;BME280;41334;47.872;16.384;2022-08-14T00:39:38;98568.09;;;15.99;66.27
55470;BME280;41334;47.872;16.384;2022-08-14T00:42:43;98572.69;;;15.98;65.58
55470;BME280;41334;47.872;16.384;2022-08-14T00:46:05;98571.41;;;16.01;64.65
55470;BME280;41334;47.872;16.384;2022-08-14T00:49:23;98576.81;;;16.01;64.20
55470;BME280;41334;47.872;16.384;2022-08-14T00:52:25;98574.66;;;16.03;64.73
55470;BME280;41334;47.872;16.384;2022-08-14T00:55:27;98583.16;;;15.95;65.20
55470;BME280;41334;47.872;16.384;2022-08-14T00:58:30;98587.03;;;15.99;64.06
55470;BME280;41334;47.872;16.384;2022-08-14T01:01:34;98590.22;;;15.96;65.60
55470;BME280;41334;47.872;16.384;2022-08-14T01:04:37;98591.34;;;16.00;64.51
55470;BME280;41334;47.872;16.384;2022-08-14T01:07:55;98589.63;;;15.94;64.91
55470;BME280;41334;47.872;16.384;2022-08-14T01:11:00;98592.84;;;15.91;65.16
55470;BME280;41334;47.872;16.384;2022-08-14T01:14:03;98595.75;;;15.89;65.51
55470;BME280;41334;47.872;16.384;2022-08-14T01:17:27;98604.31;;;15.98;64.54
55470;BME280;41334;47.872;16.384;2022-08-14T01:20:52;98596.53;;;16.01;65.36
55470;BME280;41334;47.872;16.384;2022-08-14T01:24:05;98581.63;;;16.16;64.43
55470;BME280;41334;47.872;16.384;2022-08-14T01:27:15;98579.34;;;16.24;63.68
55470;BME280;41334;47.872;16.384;2022-08-14T01:30:19;98577.88;;;16.34;63.90
55470;BME280;41334;47.872;16.384;2022-08-14T01:33:24;98569.28;;;16.37;64.52
55470;BME280;41334;47.872;16.384;2022-08-14T01:36:30;98573.09;;;16.41;63.40
55470;BME280;41334;47.872;16.384;2022-08-14T01:39:39;98577.78;;;16.45;64.59
55470;BME280;41334;47.872;16.384;2022-08-14T01:42:42;98561.91;;;16.49;64.89
55470;BME280;41334;47.872;16.384;2022-08-14T01:45:45;98564.19;;;16.57;63.25
55470;BME280;41334;47.872;16.384;2022-08-14T01:49:09;98563.22;;;16.63;63.13
55470;BME280;41334;47.872;16.384;2022-08-14T01:52:13;98559.09;;;16.61;63.86
55470;BME280;41334;47.872;16.384;2022-08-14T01:55:35;98558.78;;;16.57;63.36
55470;BME280;41334;47.872;16.384;2022-08-14T01:58:42;98560.09;;;16.54;64.08
55470;BME280;41334;47.872;16.384;2022-08-14T02:02:00;98560.44;;;16.58;63.72
55470;BME280;41334;47.872;16.384;2022-08-14T02:05:04;98561.00;;;16.60;63.04
55470;BME280;41334;47.872;16.384;2022-08-14T02:08:07;98556.41;;;16.61;63.48
55470;BME280;41334;47.872;16.384;2022-08-14T02:11:12;98555.84;;;16.59;63.27
55470;BME280;41334;47.872;16.384;2022-08-14T02:14:23;98558.13;;;16.50;64.07
55470;BME280;41334;47.872;16.384;2022-08-14T02:17:32;98563.81;;;16.48;63.76
55470;BME280;41334;47.872;16.384;2022-08-14T02:20:34;98559.47;;;16.47;63.63
55470;BME280;41334;47.872;16.384;2022-08-14T02:23:37;98557.06;;;16.51;63.33
55470;BME280;41334;47.872;16.384;2022-08-14T02:26:42;98562.25;;;16.52;63.34
55470;BME280;41334;47.872;16.384;2022-08-14T02:30:08;98558.13;;;16.50;62.98
55470;BME280;41334;47.872;16.384;2022-08-14T02:33:14;98558.69;;;16.52;63.71
55470;BME280;41334;47.872;16.384;2022-08-14T02:36:16;98561.25;;;16.42;64.60
55470;BME280;41334;47.872;16.384;2022-08-14T02:39:42;98556.41;;;16.44;63.79
55470;BME280;41334;47.872;16.384;2022-08-14T02:42:47;98551.72;;;16.39;64.62
55470;BME280;41334;47.872;16.384;2022-08-14T02:45:58;98555.97;;;16.35;63.96
55470;BME280;41334;47.872;16.384;2022-08-14T02:49:02;98556.72;;;16.30;63.35
55470;BME280;41334;47.872;16.384;2022-08-14T02:52:07;98557.22;;;16.27;63.38
55470;BME280;41334;47.872;16.384;2022-08-14T02:55:29;98562.03;;;16.25;64.16
55470;BME280;41334;47.872;16.384;2022-08-14T02:58:35;98562.56;;;16.22;63.99
55470;BME280;41334;47.872;16.384;2022-08-14T03:01:42;98566.81;;;16.18;65.04
55470;BME280;41334;47.872;16.384;2022-08-14T03:04:55;98568.09;;;16.16;65.30
55470;BME280;41334;47.872;16.384;2022-08-14T03:08:09;98564.28;;;16.12;66.15
55470;BME280;41334;47.872;16.384;2022-08-14T03:11:12;98554.28;;;16.12;65.93
55470;BME280;41334;47.872;16.384;2022-08-14T03:14:15;98560.84;;;16.16;64.21
55470;BME280;41334;47.872;16.384;2022-08-14T03:17:19;98561.97;;;16.20;64.93
55470;BME280;41334;47.872;16.384;2022-08-14T03:20:22;98559.78;;;16.17;64.72
55470;BME280;41334;47.872;16.384;2022-08-14T03:23:24;98564.75;;;16.25;64.74
55470;BME280;41334;47.872;16.384;2022-08-14T03:26:26;98562.72;;;16.33;63.83
55470;BME280;41334;47.872;16.384;2022-08-14T03:29:31;98562.72;;;16.33;64.21
55470;BME280;41334;47.872;16.384;2022-08-14T03:32:33;98566.50;;;16.32;64.35
55470;BME280;41334;47.872;16.384;2022-08-14T03:35:35;98570.25;;;16.30;64.26
55470;BME280;41334;47.872;16.384;2022-08-14T03:38:43;98568.88;;;16.28;64.51
55470;BME280;41334;47.872;16.384;2022-08-14T03:42:05;98566.88;;;16.23;65.41
55470;BME280;41334;47.872;16.384;2022-08-14T03:45:19;98560.34;;;16.19;65.38
55470;BME280;41334;47.872;16.384;2022-08-14T03:48:36;98553.63;;;16.22;65.40
55470;BME280;41334;47.872;16.384;2022-08-14T03:51:41;98561.41;;;16.18;65.35
55470;BME280;41334;47.872;16.384;2022-08-14T03:54:43;98553.03;;;16.20;64.96
55470;BME280;41334;47.872;16.384;2022-08-14T03:57:53;98553.84;;;16.20;65.16
55470;BME280;41334;47.872;16.384;2022-08-14T04:00:58;98558.44;;;16.20;65.83
55470;BME280;41334;47.872;16.384;2022-08-14T04:04:00;98554.94;;;16.19;65.11
55470;BME280;41334;47.872;16.384;2022-08-14T04:07:08;98558.94;;;16.17;65.75
55470;BME280;41334;47.872;16.384;2022-08-14T04:10:11;98564.75;;;16.25;65.75
55470;BME280;41334;47.872;16.384;2022-08-14T04:13:17;98568.59;;;16.29;65.02
55470;BME280;41334;47.872;16.384;2022-08-14T04:16:24;98560.31;;;16.36;64.55
55470;BME280;41334;47.872;16.384;2022-08-14T04:19:32;98549.19;;;16.49;64.22
55470;BME280;41334;47.872;16.384;2022-08-14T04:22:38;98542.34;;;17.02;63.16
55470;BME280;41334;47.872;16.384;2022-08-14T04:25:44;98553.91;;;17.37;62.16
55470;BME280;41334;47.872;16.384;2022-08-14T04:28:48;98548.22;;;17.38;62.21
55470;BME280;41334;47.872;16.384;2022-08-14T04:32:11;98544.91;;;17.31;61.01
55470;BME280;41334;47.872;16.384;2022-08-14T04:35:37;98546.81;;;17.14;62.24
55470;BME280;41334;47.872;16.384;2022-08-14T04:38:57;98553.50;;;17.06;62.18
55470;BME280;41334;47.872;16.384;2022-08-14T04:42:17;98541.78;;;17.00;62.81
55470;BME280;41334;47.872;16.384;2022-08-14T04:45:47;98542.66;;;17.06;62.51
55470;BME280;41334;47.872;16.384;2022-08-14T04:48:52;98544.56;;;17.05;62.35
55470;BME280;41334;47.872;16.384;2022-08-14T04:52:00;98543.59;;;17.17;61.83
55470;BME280;41334;47.872;16.384;2022-08-14T04:55:23;98539.53;;;17.14;63.05
55470;BME280;41334;47.872;16.384;2022-08-14T04:58:31;98531.34;;;17.09;63.50
55470;BME280;41334;47.872;16.384;2022-08-14T05:01:34;98538.78;;;17.41;61.84
55470;BME280;41334;47.872;16.384;2022-08-14T05:04:41;98534.34;;;17.56;60.84
55470;BME280;41334;47.872;16.384;2022-08-14T05:08:03;98533.16;;;17.74;61.23
55470;BME280;41334;47.872;16.384;2022-08-14T05:11:10;98528.53;;;18.07;59.79
55470;BME280;41334;47.872;16.384;2022-08-14T05:14:14;98530.97;;;18.03;60.45
55470;BME280;41334;47.872;16.384;2022-08-14T05:17:41;98525.53;;;18.35;59.66
55470;BME280;41334;47.872;16.384;2022-08-14T05:20:55;98530.25;;;18.50;59.17
55470;BME280;41334;47.872;16.384;2022-08-14T05:24:17;98526.72;;;18.50;59.43
55470;BME280;41334;47.872;16.384;2022-08-14T05:27:20;98521.78;;;18.42;59.50
55470;BME280;41334;47.872;16.384;2022-08-14T05:30:24;98518.00;;;18.48;58.92
55470;BME280;41334;47.872;16.384;2022-08-14T05:33:28;98516.44;;;18.57;59.05
55470;BME280;41334;47.872;16.384;2022-08-14T05:36:30;98516.00;;;18.70;59.00
55470;BME280;41334;47.872;16.384;2022-08-14T05:39:37;98518.22;;;18.83;58.52
55470;BME280;41334;47.872;16.384;2022-08-14T05:42:41;98518.63;;;18.55;59.76
55470;BME280;41334;47.872;16.384;2022-08-14T05:45:47;98523.78;;;18.56;59.99
55470;BME280;41334;47.872;16.384;2022-08-14T05:48:53;98523.22;;;18.54;59.57
55470;BME280;41334;47.872;16.384;2022-08-14T05:51:55;98524.63;;;18.62;58.81
55470;BME280;41334;47.872;16.384;2022-08-14T05:54:58;98529.25;;;18.67;59.78
55470;BME280;41334;47.872;16.384;2022-08-14T05:58:04;98528.63;;;18.97;59.08
55470;BME280;41334;47.872;16.384;2022-08-14T06:01:08;98524.91;;;19.18;58.52
55470;BME280;41334;47.872;16.384;2022-08-14T06:04:12;98529.34;;;19.45;57.73
55470;BME280;41334;47.872;16.384;2022-08-14T06:07:16;98526.19;;;19.99;55.67
55470;BME280;41334;47.872;16.384;2022-08-14T06:10:18;98518.53;;;19.70;56.50
55470;BME280;41334;47.872;16.384;2022-08-14T06:13:20;98511.97;;;19.56;57.19
55470;BME280;41334;47.872;16.384;2022-08-14T06:16:22;98527.72;;;19.49;56.65
55470;BME280;41334;47.872;16.384;2022-08-14T06:19:25;98524.47;;;19.47;58.16
55470;BME280;41334;47.872;16.384;2022-08-14T06:22:27;98528.25;;;19.46;58.00
55470;BME280;41334;47.872;16.384;2022-08-14T06:25:29;98526.72;;;19.80;56.71
55470;BME280;41334;47.872;16.384;2022-08-14T06:28:31;98524.00;;;19.85;56.17
55470;BME280;41334;47.872;16.384;2022-08-14T06:31:34;98531.06;;;19.71;56.78
55470;BME280;41334;47.872;16.384;2022-08-14T06:34:36;98524.47;;;19.62;56.63
55470;BME280;41334;47.872;16.384;2022-08-14T06:37:59;98534.25;;;19.53;57.24
55470;BME280;41334;47.872;16.384;2022-08-14T06:41:05;98527.25;;;19.72;56.25
55470;BME280;41334;47.872;16.384;2022-08-14T06:44:11;98533.72;;;19.56;56.69
55470;BME280;41334;47.872;16.384;2022-08-14T06:47:13;98534.25;;;19.53;57.09
55470;BME280;41334;47.872;16.384;2022-08-14T06:50:17;98536.22;;;19.68;56.07
55470;BME280;41334;47.872;16.384;2022-08-14T06:53:20;98532.25;;;19.18;58.82
55470;BME280;41334;47.872;16.384;2022-08-14T06:56:22;98524.13;;;19.23;58.14
55470;BME280;41334;47.872;16.384;2022-08-14T06:59:24;98528.16;;;19.20;58.84
55470;BME280;41334;47.872;16.384;2022-08-14T07:02:26;98529.25;;;19.14;58.53
55470;BME280;41334;47.872;16.384;2022-08-14T07:05:46;98531.72;;;19.31;58.00
55470;BME280;41334;47.872;16.384;2022-08-14T07:08:58;98533.09;;;19.28;58.19
55470;BME280;41334;47.872;16.384;2022-08-14T07:12:01;98535.53;;;19.30;57.89
55470;BME280;41334;47.872;16.384;2022-08-14T07:15:04;98539.69;;;19.48;57.34
55470;BME280;41334;47.872;16.384;2022-08-14T07:18:07;98536.34;;;19.30;57.60
55470;BME280;41334;47.872;16.384;2022-08-14T07:21:10;98535.75;;;19.08;57.48
55470;BME280;41334;47.872;16.384;2022-08-14T07:24:12;98534.72;;;19.24;57.51
55470;BME280;41334;47.872;16.384;2022-08-14T07:27:22;98525.53;;;19.46;56.25
55470;BME280;41334;47.872;16.384;2022-08-14T07:30:26;98528.44;;;19.19;57.56
55470;BME280;41334;47.872;16.384;2022-08-14T07:33:41;98531.53;;;19.48;57.34
55470;BME280;41334;47.872;16.384;2022-08-14T07:36:46;98529.91;;;19.57;57.10
55470;BME280;41334;47.872;16.384;2022-08-14T07:40:00;98531.59;;;19.68;56.63
55470;BME280;41334;47.872;16.384;2022-08-14T07:43:02;98528.31;;;19.66;56.45
55470;BME280;41334;47.872;16.384;2022-08-14T07:46:15;98531.06;;;19.81;56.04
55470;BME280;41334;47.872;16.384;2022-08-14T07:49:30;98542.50;;;19.73;56.50
55470;BME280;41334;47.872;16.384;2022-08-14T07:52:33;98534.84;;;19.70;56.36
55470;BME280;41334;47.872;16.384;2022-08-14T07:55:36;98535.59;;;19.50;57.50
55470;BME280;41334;47.872;16.384;2022-08-14T07:58:39;98527.75;;;19.59;57.53
55470;BME280;41334;47.872;16.384;2022-08-14T08:01:53;98533.19;;;19.59;57.24
55470;BME280;41334;47.872;16.384;2022-08-14T08:04:59;98528.81;;;19.53;57.05
55470;BME280;41334;47.872;16.384;2022-08-14T08:08:02;98528.06;;;20.13;55.07
55470;BME280;41334;47.872;16.384;2022-08-14T08:11:10;98529.16;;;19.87;56.39
55470;BME280;41334;47.872;16.384;2022-08-14T08:14:15;98528.34;;;20.02;56.44
55470;BME280;41334;47.872;16.384;2022-08-14T08:17:19;98532.44;;;20.09;56.18
55470;BME280;41334;47.872;16.384;2022-08-14T08:20:25;98528.06;;;20.24;55.85
55470;BME280;41334;47.872;16.384;2022-08-14T08:23:29;98524.00;;;20.01;56.08
55470;BME280;41334;47.872;16.384;2022-08-14T08:26:51;98522.34;;;20.61;54.21
55470;BME280;41334;47.872;16.384;2022-08-14T08:30:08;98525.88;;;20.61;54.07
55470;BME280;41334;47.872;16.384;2022-08-14T08:33:11;98531.06;;;20.32;55.08
55470;BME280;41334;47.872;16.384;2022-08-14T08:36:14;98527.53;;;20.57;54.22
55470;BME280;41334;47.872;16.384;2022-08-14T08:39:19;98530.28;;;20.47;54.81
55470;BME280;41334;47.872;16.384;2022-08-14T08:42:24;98533.72;;;20.78;53.67
55470;BME280;41334;47.872;16.384;2022-08-14T08:45:38;98528.81;;;20.80;53.11
55470;BME280;41334;47.872;16.384;2022-08-14T08:48:54;98528.25;;;20.88;53.32
55470;BME280;41334;47.872;16.384;2022-08-14T08:52:00;98538.03;;;20.94;53.53
55470;BME280;41334;47.872;16.384;2022-08-14T08:55:05;98530.94;;;21.04;52.84
55470;BME280;41334;47.872;16.384;2022-08-14T08:58:13;98533.53;;;21.39;51.53
55470;BME280;41334;47.872;16.384;2022-08-14T09:01:27;98525.41;;;21.24;52.09
55470;BME280;41334;47.872;16.384;2022-08-14T09:04:35;98525.19;;;21.05;52.56
55470;BME280;41334;47.872;16.384;2022-08-14T09:07:54;98533.75;;;21.43;51.45
55470;BME280;41334;47.872;16.384;2022-08-14T09:10:58;98531.56;;;21.45;51.93
55470;BME280;41334;47.872;16.384;2022-08-14T09:14:01;98542.31;;;21.21;51.83
55470;BME280;41334;47.872;16.384;2022-08-14T09:17:05;98548.09;;;21.09;52.04
55470;BME280;41334;47.872;16.384;2022-08-14T09:20:08;98550.75;;;21.30;52.10
55470;BME280;41334;47.872;16.384;2022-08-14T09:23:13;98546.84;;;21.41;51.42
55470;BME280;41334;47.872;16.384;2022-08-14T09:26:17;98535.16;;;21.40;51.57
55470;BME280;41334;47.872;16.384;2022-08-14T09:29:22;98530.38;;;21.61;50.31
55470;BME280;41334;47.872;16.384;2022-08-14T09:32:31;98530.97;;;21.53;50.68
55470;BME280;41334;47.872;16.384;2022-08-14T09:42:59;98532.28;;;21.66;50.70
55470;BME280;41334;47.872;16.384;2022-08-14T09:46:06;98519.94;;;22.13;49.63
55470;BME280;41334;47.872;16.384;2022-08-14T09:49:08;98522.63;;;22.18;50.06
55470;BME280;41334;47.872;16.384;2022-08-14T09:52:17;98522.03;;;22.55;48.79
55470;BME280;41334;47.872;16.384;2022-08-14T09:55:35;98515.19;;;22.82;47.93
55470;BME280;41334;47.872;16.384;2022-08-14T09:58:44;98513.25;;;23.06;47.67
55470;BME280;41334;47.872;16.384;2022-08-14T10:01:48;98513.13;;;22.92;47.58
55470;BME280;41334;47.872;16.384;2022-08-14T10:05:07;98513.94;;;22.93;47.92
55470;BME280;41334;47.872;16.384;2022-08-14T10:08:18;98498.97;;;22.90;47.94
55470;BME280;41334;47.872;16.384;2022-08-14T10:11:30;98497.97;;;23.05;47.38
55470;BME280;41334;47.872;16.384;2022-08-14T10:14:36;98493.16;;;23.21;46.94
55470;BME280;41334;47.872;16.384;2022-08-14T10:17:38;98491.69;;;23.47;46.32
55470;BME280;41334;47.872;16.384;2022-08-14T10:20:55;98485.97;;;23.44;45.92
55470;BME280;41334;47.872;16.384;2022-08-14T10:24:01;98470.19;;;24.25;44.52
55470;BME280;41334;47.872;16.384;2022-08-14T10:30:20;98468.72;;;24.74;43.37
55470;BME280;41334;47.872;16.384;2022-08-14T10:33:31;98470.28;;;24.80;43.27
55470;BME280;41334;47.872;16.384;2022-08-14T10:36:38;98466.53;;;24.76;42.58
55470;BME280;41334;47.872;16.384;2022-08-14T10:39:43;98462.75;;;24.86;42.79
55470;BME280;41334;47.872;16.384;2022-08-14T10:43:03;98465.53;;;25.36;41.42
55470;BME280;41334;47.872;16.384;2022-08-14T10:46:17;98468.78;;;25.38;41.87
55470;BME280;41334;47.872;16.384;2022-08-14T10:49:43;98458.88;;;25.64;41.26
55470;BME280;41334;47.872;16.384;2022-08-14T10:52:57;98460.94;;;25.09;41.04
55470;BME280;41334;47.872;16.384;2022-08-14T10:56:08;98462.16;;;25.02;41.15
55470;BME280;41334;47.872;16.384;2022-08-14T10:59:40;98464.00;;;25.57;40.59
55470;BME280;41334;47.872;16.384;2022-08-14T11:02:43;98455.56;;;25.98;39.57
55470;BME280;41334;47.872;16.384;2022-08-14T11:05:55;98445.13;;;26.09;38.55
55470;BME280;41334;47.872;16.384;2022-08-14T11:08:57;98437.19;;;25.40;39.83
55470;BME280;41334;47.872;16.384;2022-08-14T11:11:59;98439.53;;;25.92;38.60
55470;BME280;41334;47.872;16.384;2022-08-14T11:15:25;98443.44;;;26.22;39.23
55470;BME280;41334;47.872;16.384;2022-08-14T11:18:29;98437.25;;;26.47;37.93
55470;BME280;41334;47.872;16.384;2022-08-14T11:21:41;98428.16;;;26.07;38.61
55470;BME280;41334;47.872;16.384;2022-08-14T11:24:48;98430.34;;;26.19;38.83
55470;BME280;41334;47.872;16.384;2022-08-14T11:27:57;98432.50;;;25.54;39.44
55470;BME280;41334;47.872;16.384;2022-08-14T11:31:01;98434.63;;;25.57;39.18
55470;BME280;41334;47.872;16.384;2022-08-14T11:34:04;98427.69;;;25.60;39.58
55470;BME280;41334;47.872;16.384;2022-08-14T11:37:11;98425.50;;;25.35;38.69
55470;BME280;41334;47.872;16.384;2022-08-14T11:40:34;98418.28;;;24.89;40.08
55470;BME280;41334;47.872;16.384;2022-08-14T11:43:41;98419.13;;;24.62;40.95
55470;BME280;41334;47.872;16.384;2022-08-14T11:46:56;98421.06;;;24.75;41.00
55470;BME280;41334;47.872;16.384;2022-08-14T11:49:58;98430.38;;;24.74;40.61
55470;BME280;41334;47.872;16.384;2022-08-14T11:53:00;98423.75;;;25.75;38.71
55470;BME280;41334;47.872;16.384;2022-08-14T11:56:05;98421.78;;;27.08;36.03
55470;BME280;41334;47.872;16.384;2022-08-14T11:59:16;98424.69;;;27.12;35.66
55470;BME280;41334;47.872;16.384;2022-08-14T12:02:18;98423.31;;;26.35;36.76
55470;BME280;41334;47.872;16.384;2022-08-14T12:05:40;98422.59;;;26.21;37.25
55470;BME280;41334;47.872;16.384;2022-08-14T12:08:44;98416.69;;;26.36;38.32
55470;BME280;41334;47.872;16.384;2022-08-14T12:11:53;98425.13;;;25.86;38.29
55470;BME280;41334;47.872;16.384;2022-08-14T12:14:59;98421.09;;;25.83;39.35
55470;BME280;41334;47.872;16.384;2022-08-14T12:18:01;98415.50;;;25.97;38.13
55470;BME280;41334;47.872;16.384;2022-08-14T12:24:26;98405.47;;;26.24;37.87
55470;BME280;41334;47.872;16.384;2022-08-14T12:27:48;98403.47;;;26.95;35.90
55470;BME280;41334;47.872;16.384;2022-08-14T12:30:54;98398.41;;;26.31;36.31
55470;BME280;41334;47.872;16.384;2022-08-14T12:33:59;98388.06;;;25.52;38.82
55470;BME280;41334;47.872;16.384;2022-08-14T12:37:06;98391.91;;;25.51;39.14
55470;BME280;41334;47.872;16.384;2022-08-14T12:40:13;98377.16;;;25.39;39.13
55470;BME280;41334;47.872;16.384;2022-08-14T12:43:21;98385.72;;;25.60;38.43
55470;BME280;41334;47.872;16.384;2022-08-14T12:46:26;98382.91;;;25.73;38.83
55470;BME280;41334;47.872;16.384;2022-08-14T12:49:30;98378.66;;;25.90;38.29
55470;BME280;41334;47.872;16.384;2022-08-14T12:52:35;98378.44;;;26.08;37.57
55470;BME280;41334;47.872;16.384;2022-08-14T12:55:58;98371.28;;;26.07;37.24
55470;BME280;41334;47.872;16.384;2022-08-14T12:59:27;98364.38;;;25.79;36.54
55470;BME280;41334;47.872;16.384;2022-08-14T13:02:36;98365.50;;;26.09;37.48
55470;BME280;41334;47.872;16.384;2022-08-14T13:05:38;98366.41;;;27.01;35.39
55470;BME280;41334;47.872;16.384;2022-08-14T13:08:41;98367.38;;;26.71;36.19
55470;BME280;41334;47.872;16.384;2022-08-14T13:11:54;98367.06;;;26.81;35.08
55470;BME280;41334;47.872;16.384;2022-08-14T13:15:17;98353.06;;;26.60;35.53
55470;BME280;41334;47.872;16.384;2022-08-14T13:18:21;98346.84;;;26.85;35.68
55470;BME280;41334;47.872;16.384;2022-08-14T13:21:25;98349.31;;;27.39;34.46
55470;BME280;41334;47.872;16.384;2022-08-14T13:24:29;98338.31;;;27.39;35.10
55470;BME280;41334;47.872;16.384;2022-08-14T13:27:34;98328.84;;;26.62;36.11
55470;BME280;41334;47.872;16.384;2022-08-14T13:30:41;98331.66;;;26.22;36.45
55470;BME280;41334;47.872;16.384;2022-08-14T13:33:45;98323.63;;;26.43;37.08
55470;BME280;41334;47.872;16.384;2022-08-14T13:36:48;98313.69;;;26.73;35.62
55470;BME280;41334;47.872;16.384;2022-08-14T13:39:59;98312.72;;;26.95;36.42
55470;BME280;41334;47.872;16.384;2022-08-14T13:43:06;98306.09;;;27.40;35.14
55470;BME280;41334;47.872;16.384;2022-08-14T13:46:09;98298.31;;;27.50;34.43
55470;BME280;41334;47.872;16.384;2022-08-14T13:49:12;98299.13;;;27.25;33.97
55470;BME280;41334;47.872;16.384;2022-08-14T13:52:17;98293.78;;;27.54;33.76
55470;BME280;41334;47.872;16.384;2022-08-14T13:55:41;98281.72;;;27.68;33.66
55470;BME280;41334;47.872;16.384;2022-08-14T13:59:17;98269.56;;;28.45;32.69
55470;BME280;41334;47.872;16.384;2022-08-14T14:02:39;98279.91;;;27.33;33.85
55470;BME280;41334;47.872;16.384;2022-08-14T14:05:49;98273.09;;;26.70;35.44
55470;BME280;41334;47.872;16.384;2022-08-14T14:08:55;98261.31;;;27.04;34.45
55470;BME280;41334;47.872;16.384;2022-08-14T14:11:59;98267.06;;;26.33;36.64
55470;BME280;41334;47.872;16.384;2022-08-14T14:15:07;98260.66;;;27.07;35.28
55470;BME280;41334;47.872;16.384;2022-08-14T14:18:11;98257.91;;;27.07;35.07
55470;BME280;41334;47.872;16.384;2022-08-14T14:21:33;98262.44;;;27.29;34.24
55470;BME280;41334;47.872;16.384;2022-08-14T14:24:34;98260.53;;;26.86;35.71
55470;BME280;41334;47.872;16.384;2022-08-14T14:27:42;98257.72;;;26.34;35.57
55470;BME280;41334;47.872;16.384;2022-08-14T14:30:46;98241.22;;;26.26;36.52
55470;BME280;41334;47.872;16.384;2022-08-14T14:33:56;98251.63;;;26.81;34.39
55470;BME280;41334;47.872;16.384;2022-08-14T14:36:59;98243.16;;;26.43;35.09
55470;BME280;41334;47.872;16.384;2022-08-14T14:40:05;98244.66;;;26.75;34.32
55470;BME280;41334;47.872;16.384;2022-08-14T14:43:28;98229.75;;;27.10;36.60
55470;BME280;41334;47.872;16.384;2022-08-14T14:46:34;98229.94;;;26.88;36.21
55470;BME280;41334;47.872;16.384;2022-08-14T14:49:37;98234.16;;;26.94;34.46
55470;BME280;41334;47.872;16.384;2022-08-14T14:52:55;98232.06;;;26.82;35.13
55470;BME280;41334;47.872;16.384;2022-08-14T14:56:13;98235.06;;;26.20;35.24
55470;BME280;41334;47.872;16.384;2022-08-14T14:59:36;98236.41;;;25.92;36.05
55470;BME280;41334;47.872;16.384;2022-08-14T15:02:44;98238.63;;;25.81;36.49
55470;BME280;41334;47.872;16.384;2022-08-14T15:05:48;98236.53;;;25.78;36.93
55470;BME280;41334;47.872;16.384;2022-08-14T15:08:53;98230.69;;;25.71;36.52
55470;BME280;41334;47.872;16.384;2022-08-14T15:12:00;98227.31;;;25.43;36.91
55470;BME280;41334;47.872;16.384;2022-08-14T15:15:23;98237.28;;;25.70;36.76
55470;BME280;41334;47.872;16.384;2022-08-14T15:18:24;98234.66;;;25.56;37.09
55470;BME280;41334;47.872;16.384;2022-08-14T15:21:40;98237.78;;;25.72;36.42
55470;BME280;41334;47.872;16.384;2022-08-14T15:24:43;98232.69;;;25.96;36.67
55470;BME280;41334;47.872;16.384;2022-08-14T15:27:47;98235.53;;;26.14;36.47
55470;BME280;41334;47.872;16.384;2022-08-14T15:30:55;98239.75;;;26.28;35.75
55470;BME280;41334;47.872;16.384;2022-08-14T15:33:59;98236.88;;;26.59;35.37
55470;BME280;41334;47.872;16.384;2022-08-14T15:37:35;98227.16;;;26.19;36.16
55470;BME280;41334;47.872;16.384;2022-08-14T15:40:42;98229.25;;;26.39;36.03
55470;BME280;41334;47.872;16.384;2022-08-14T15:43:52;98227.34;;;26.57;37.92
55470;BME280;41334;47.872;16.384;2022-08-14T15:46:58;98212.75;;;26.22;37.01
55470;BME280;41334;47.872;16.384;2022-08-14T15:50:03;98212.31;;;25.80;37.97
55470;BME280;41334;47.872;16.384;2022-08-14T15:53:05;98213.03;;;25.54;38.20
55470;BME280;41334;47.872;16.384;2022-08-14T15:56:14;98210.53;;;25.44;39.20
55470;BME280;41334;47.872;16.384;2022-08-14T15:59:37;98210.00;;;24.89;39.39
55470;BME280;41334;47.872;16.384;2022-08-14T16:02:59;98208.59;;;24.69;40.09
55470;BME280;41334;47.872;16.384;2022-08-14T16:06:07;98204.47;;;24.80;40.71
55470;BME280;41334;47.872;16.384;2022-08-14T16:09:16;98202.78;;;24.93;40.52
55470;BME280;41334;47.872;16.384;2022-08-14T16:12:21;98201.56;;;24.99;39.39
55470;BME280;41334;47.872;16.384;2022-08-14T16:15:43;98204.69;;;25.06;38.82
55470;BME280;41334;47.872;16.384;2022-08-14T16:18:54;98200.84;;;24.93;39.76
55470;BME280;41334;47.872;16.384;2022-08-14T16:22:01;98197.53;;;24.96;39.58
55470;BME280;41334;47.872;16.384;2022-08-14T16:25:23;98201.78;;;24.66;40.12
55470;BME280;41334;47.872;16.384;2022-08-14T16:28:56;98195.00;;;24.27;41.50
55470;BME280;41334;47.872;16.384;2022-08-14T16:32:09;98203.94;;;24.19;41.48
55470;BME280;41334;47.872;16.384;2022-08-14T16:35:34;98196.53;;;24.20;41.64
55470;BME280;41334;47.872;16.384;2022-08-14T16:39:01;98199.63;;;24.54;41.53
55470;BME280;41334;47.872;16.384;2022-08-14T16:42:03;98200.13;;;25.01;40.33